Iona, Minnesota
Current Conditions -  °F | °C
As of 12:56 AM on Monday 24 Nov 2014 (Local Time) from KDVP Reporting Station
Overcast Overcast  
Wind Chill:   Ceiling: 1400
Heat Index: 23°   Visibility: 10mi
Dew Point: 19°   Wind: 28mph
Humidity: 87%   Direction: 310°NW
Pressure: 29.46"   Gusts: 32mph
Location:  43.92°N, 95.78°W
Report Text: KDVP 240656Z AUTO 31024G28KT 10SM OVC014 M05/M07 A2946 RMK AO2 T10521071
Loading
Personal Weather Stations






























Interactive Weather Map New forecast layout! Learn more

10-Day Weather Forecast

Advertisements
Track Severe Weather on mobile